Metar z połowy godziny Komunikat METAR ze strony awiacja.imgw.pl Metar G00 EPWR METAR EPWR 230830Z 31012KT 9999 SCT019CB SCT025 06/03 Q1023 =